DNAA Airport Information

Runway Information
Runway 04 Length 11842 ft width 197 ft
Elevation 1087 ft Threshold 0 ft Heading 35
Runway 22 Length 11842 ft Width 197 ft
Elevation 1123 ft Threshold 0 ft Heading 215
Airport Frequencies
Type APP Name APP Frequency 127.9 MHZ
Type ATIS Name ATIS Frequency 123.9 MHZ
Type TWR Name TWR Frequency 119.8 MHZ
Airport Navaids
Type VOR-DME Name Abuja Frequency 116300 KHZ
Type NDB Name Abuja Frequency 321 KHZ
Type VOR-DME Name Gboko Frequency 115900 KHZ
Airport Weather Information & NOTAM
ADDS - METARS form results

(2258 UTC 27 November 2021)
Data provider http://aviationweather.gov/metar/data/
 
METAR text: DNAA 272200Z 00000KT CAVOK 23/18 Q1013 NOSIG
Conditions at: DNAA (ABUJA , NG) observed 2200 UTC 27 November 2021
Temperature: 23.0°C (73°F)
Dewpoint: 18.0°C (64°F) [RH = 73%]
Pressure (altimeter): 29.91 inches Hg (1013.0 mb)
Winds: calm
Visibility: 6 or more miles (10+ km)
Ceiling: ceiling and visibility are OK
Clouds: unknown
Weather: no significant weather observed at this time